Time;durP1;ratioP1;P1;durP2;ratioP2;P2;SDS_P1;SDS_P2;PMS_P1;PMS_P2;Temp;Humidity;BMP_temperature;BMP_pressure;BME280_temperature;BME280_humidity;BME280_pressure;Samples;Min_cycle;Max_cycle;Signal;HPM_P1;HPM_P2
2022/06/22 00:01:46;;;;;;;8.07;5.53;;;20.50;99.90;;;;;;5092248;28;20447;-81
2022/06/22 00:04:26;;;;;;;4.70;4.30;;;20.40;99.90;;;;;;5091734;28;20075;-80
2022/06/22 00:06:56;;;;;;;10.52;5.10;;;20.50;99.90;;;;;;5090797;28;20028;-80
2022/06/22 00:09:42;;;;;;;7.63;5.97;;;20.50;99.90;;;;;;5092056;28;20024;-81
2022/06/22 00:12:22;;;;;;;7.45;5.47;;;20.50;99.90;;;;;;5091897;28;20039;-80
2022/06/22 00:14:50;;;;;;;7.93;4.90;;;20.40;99.90;;;;;;5091927;28;20497;-80
2022/06/22 00:17:20;;;;;;;7.28;5.38;;;20.40;99.90;;;;;;5091871;28;20029;-81
2022/06/22 00:19:47;;;;;;;10.15;5.47;;;20.50;99.90;;;;;;5092107;28;20048;-81
2022/06/22 00:22:27;;;;;;;6.28;4.82;;;20.40;99.90;;;;;;5090591;28;20503;-80
2022/06/22 00:25:10;;;;;;;5.55;4.70;;;20.40;99.90;;;;;;5092578;28;20063;-81
2022/06/22 00:27:36;;;;;;;9.10;5.38;;;20.40;99.90;;;;;;5094644;28;20116;-81
2022/06/22 00:30:15;;;;;;;9.82;5.00;;;20.30;99.90;;;;;;5095899;28;20091;-80
2022/06/22 00:32:54;;;;;;;7.90;5.30;;;20.40;99.90;;;;;;5095940;28;20020;-80
2022/06/22 00:35:50;;;;;;;6.03;5.10;;;20.30;99.90;;;;;;5095749;28;20026;-81
2022/06/22 00:38:32;;;;;;;7.18;4.55;;;20.30;99.90;;;;;;5094076;28;20049;-81
2022/06/22 00:41:02;;;;;;;4.95;4.13;;;20.30;99.90;;;;;;5094595;28;20483;-80
2022/06/22 00:43:32;;;;;;;10.02;4.80;;;20.30;99.90;;;;;;5094015;28;20032;-80
2022/06/22 00:45:59;;;;;;;6.22;4.75;;;20.30;99.90;;;;;;5094310;28;20036;-80
2022/06/22 00:48:30;;;;;;;6.35;4.72;;;20.20;99.90;;;;;;5095473;28;20035;-80
2022/06/22 00:51:07;;;;;;;7.28;4.47;;;20.30;99.90;;;;;;5095449;28;20028;-80
2022/06/22 00:53:42;;;;;;;9.40;4.90;;;20.20;99.90;;;;;;5093994;28;20061;-80
2022/06/22 00:56:29;;;;;;;5.20;4.53;;;20.20;99.90;;;;;;5095305;28;20108;-80
2022/06/22 00:59:20;;;;;;;7.53;5.70;;;20.20;99.90;;;;;;5095233;28;20035;-81
2022/06/22 01:01:56;;;;;;;6.82;4.85;;;20.20;99.90;;;;;;5095347;28;20028;-80
2022/06/22 01:04:34;;;;;;;7.57;5.68;;;20.20;99.90;;;;;;5094987;28;20495;-81
2022/06/22 01:07:16;;;;;;;6.75;5.55;;;20.20;99.90;;;;;;5095135;28;20025;-80
2022/06/22 01:09:58;;;;;;;7.10;5.20;;;20.20;99.90;;;;;;5093824;28;20031;-80
2022/06/22 01:12:59;;;;;;;6.88;4.85;;;20.20;99.90;;;;;;5095045;28;20024;-80
2022/06/22 01:15:42;;;;;;;6.63;4.15;;;20.20;99.90;;;;;;5086724;28;20119;-81
2022/06/22 01:18:39;;;;;;;7.10;4.22;;;20.20;99.90;;;;;;5095019;28;20054;-80
2022/06/22 01:21:18;;;;;;;9.48;3.38;;;20.10;99.90;;;;;;5090707;28;20032;-81
2022/06/22 01:24:16;;;;;;;10.23;4.45;;;20.10;99.90;;;;;;5094771;28;20024;-80
2022/06/22 01:27:19;;;;;;;4.60;3.40;;;20.10;99.90;;;;;;5094885;28;20844;-82
2022/06/22 01:29:49;;;;;;;4.30;3.15;;;20.10;99.90;;;;;;5094576;28;20073;-80
2022/06/22 01:32:21;;;;;;;5.15;4.13;;;20.10;99.90;;;;;;5093582;28;20387;-81
2022/06/22 01:34:48;;;;;;;4.55;3.20;;;20.10;99.90;;;;;;5093490;28;20020;-80
2022/06/22 01:37:22;;;;;;;3.88;2.50;;;20.10;99.90;;;;;;5094100;28;20089;-80
2022/06/22 01:39:48;;;;;;;6.10;2.40;;;20.00;99.90;;;;;;5093452;28;20744;-81
2022/06/22 01:42:34;;;;;;;2.70;2.47;;;20.00;99.90;;;;;;5094571;28;20048;-80
2022/06/22 01:45:24;;;;;;;3.08;2.45;;;19.90;99.90;;;;;;5093094;28;20503;-80
2022/06/22 01:47:59;;;;;;;3.15;2.83;;;19.90;99.90;;;;;;5094430;28;20097;-80
2022/06/22 01:50:52;;;;;;;2.83;2.28;;;19.90;99.90;;;;;;5092973;28;20471;-81
2022/06/22 01:53:31;;;;;;;3.70;2.20;;;19.90;99.90;;;;;;5094197;28;20094;-80
2022/06/22 01:56:10;;;;;;;1.52;1.42;;;19.90;99.90;;;;;;5094157;28;20425;-81
2022/06/22 01:59:03;;;;;;;1.33;1.23;;;19.90;99.90;;;;;;5094061;28;20024;-81
2022/06/22 02:01:57;;;;;;;3.92;1.40;;;19.80;98.80;;;;;;5094057;28;20032;-80
2022/06/22 02:04:47;;;;;;;1.60;1.50;;;19.80;96.90;;;;;;5089545;28;20406;-80
2022/06/22 02:10:23;;;;;;;3.50;1.30;;;19.70;96.10;;;;;;5094023;28;20392;-81
2022/06/22 02:13:04;;;;;;;1.83;1.10;;;19.60;95.60;;;;;;5092571;28;20062;-80
2022/06/22 02:15:43;;;;;;;1.70;1.48;;;19.60;95.40;;;;;;5092597;28;20028;-81
2022/06/22 02:18:12;;;;;;;3.75;0.90;;;19.60;95.60;;;;;;5092313;28;20031;-80
2022/06/22 02:20:38;;;;;;;1.05;1.00;;;19.50;94.00;;;;;;5093731;28;20023;-80
2022/06/22 02:23:18;;;;;;;1.95;1.00;;;19.50;93.50;;;;;;5092494;28;20379;-80
2022/06/22 02:26:01;;;;;;;3.47;1.08;;;19.50;93.80;;;;;;5093789;28;20028;-82
2022/06/22 02:28:27;;;;;;;1.23;1.08;;;19.50;93.40;;;;;;5092513;28;20016;-80
2022/06/22 02:30:53;;;;;;;0.80;0.80;;;19.50;93.80;;;;;;5092136;28;20034;-81
2022/06/22 02:33:19;;;;;;;0.95;0.90;;;19.50;93.40;;;;;;5092094;28;20062;-80
2022/06/22 02:35:45;;;;;;;1.17;1.00;;;19.50;92.70;;;;;;5093493;28;20475;-80
2022/06/22 02:38:14;;;;;;;1.27;0.77;;;19.50;92.70;;;;;;5092019;28;20032;-80
2022/06/22 02:46:18;;;;;;;1.35;1.00;;;19.40;90.90;;;;;;5093149;28;20038;-80
2022/06/22 02:48:48;;;;;;;2.97;1.17;;;19.40;90.40;;;;;;5091234;28;20024;-81
2022/06/22 02:51:23;;;;;;;1.13;1.10;;;19.40;91.20;;;;;;5093096;28;20024;-80
2022/06/22 02:53:50;;;;;;;0.70;0.70;;;19.40;90.70;;;;;;5093021;28;20035;-80
2022/06/22 02:56:21;;;;;;;0.60;0.60;;;19.30;91.00;;;;;;5093000;28;20029;-80
2022/06/22 02:58:48;;;;;;;2.50;1.55;;;19.30;91.50;;;;;;5093009;28;20032;-80
2022/06/22 03:01:18;;;;;;;2.58;0.80;;;19.20;90.50;;;;;;5093194;28;20459;-81
2022/06/22 03:03:57;;;;;;;1.00;0.70;;;19.20;89.50;;;;;;5092682;28;20471;-80
2022/06/22 03:06:28;;;;;;;2.00;0.75;;;19.20;90.00;;;;;;5091941;28;20024;-80
2022/06/22 03:08:55;;;;;;;1.75;0.70;;;19.20;88.50;;;;;;5092957;28;20052;-80
2022/06/22 03:11:21;;;;;;;4.43;0.90;;;19.20;87.60;;;;;;5092735;28;20028;-81
2022/06/22 03:13:56;;;;;;;1.15;0.85;;;19.20;89.50;;;;;;5091344;28;20387;-81
2022/06/22 03:16:28;;;;;;;0.60;0.60;;;19.20;90.10;;;;;;5092733;28;20072;-81
2022/06/22 03:18:56;;;;;;;2.38;0.75;;;19.20;90.00;;;;;;5091243;28;20040;-81
2022/06/22 03:21:22;;;;;;;0.82;0.55;;;19.20;90.20;;;;;;5092707;28;20168;-80
2022/06/22 03:24:08;;;;;;;2.00;0.85;;;19.10;90.50;;;;;;5092490;28;20028;-80
2022/06/22 03:26:40;;;;;;;0.60;0.60;;;19.10;90.70;;;;;;5091815;28;20047;-80
2022/06/22 03:29:14;;;;;;;0.77;0.77;;;19.10;90.90;;;;;;5092646;28;20145;-80
2022/06/22 03:32:23;;;;;;;0.63;0.57;;;19.00;91.50;;;;;;5091006;28;20031;-82
2022/06/22 03:34:55;;;;;;;0.82;0.82;;;19.00;92.40;;;;;;5092214;28;20035;-80
2022/06/22 03:37:29;;;;;;;1.63;1.05;;;19.00;92.80;;;;;;5092519;28;20072;-82
2022/06/22 03:40:08;;;;;;;1.23;0.93;;;19.00;93.20;;;;;;5092916;28;20095;-80
2022/06/22 03:42:41;;;;;;;1.75;0.80;;;19.00;92.10;;;;;;5091554;28;20558;-82
2022/06/22 03:45:14;;;;;;;5.38;0.70;;;19.00;93.70;;;;;;5091235;28;20036;-83
2022/06/22 03:48:26;;;;;;;1.00;0.75;;;19.00;94.20;;;;;;5092543;28;20051;-82
2022/06/22 03:51:06;;;;;;;3.97;0.70;;;19.00;95.30;;;;;;5072328;28;20040;-81
2022/06/22 03:53:45;;;;;;;2.10;0.80;;;19.00;96.20;;;;;;5092137;28;20024;-81
2022/06/22 03:56:15;;;;;;;0.95;0.77;;;19.00;96.60;;;;;;5090833;28;20030;-81
2022/06/22 03:58:45;;;;;;;4.03;1.13;;;19.00;95.60;;;;;;5091839;28;20023;-80
2022/06/22 04:01:11;;;;;;;1.75;0.73;;;19.40;99.90;;;;;;5091123;28;20035;-82
2022/06/22 04:03:37;;;;;;;1.30;0.80;;;19.80;99.90;;;;;;5094880;28;20051;-84
2022/06/22 04:06:04;;;;;;;0.85;0.60;;;20.10;96.10;;;;;;5092637;28;20085;-85
2022/06/22 04:08:32;;;;;;;3.88;0.90;;;20.10;94.20;;;;;;5093846;28;20106;-81
2022/06/22 04:11:12;;;;;;;2.20;0.80;;;20.20;93.10;;;;;;5092276;28;20086;-82
2022/06/22 04:14:18;;;;;;;0.85;0.52;;;20.20;92.20;;;;;;5091099;28;20016;-82
2022/06/22 04:16:50;;;;;;;3.58;1.15;;;20.30;92.60;;;;;;5091684;28;20036;-82
2022/06/22 04:19:39;;;;;;;0.40;0.40;;;20.30;90.70;;;;;;5094583;28;20061;-82
2022/06/22 04:22:10;;;;;;;0.80;0.80;;;20.40;91.20;;;;;;5092297;28;20016;-82
2022/06/22 04:24:52;;;;;;;0.68;0.68;;;20.50;89.80;;;;;;5092421;28;20032;-83
2022/06/22 04:27:32;;;;;;;1.05;0.50;;;20.40;90.20;;;;;;5091011;28;20020;-83
2022/06/22 04:30:10;;;;;;;0.65;0.60;;;20.30;86.70;;;;;;5090876;28;20375;-80
2022/06/22 04:32:52;;;;;;;2.92;1.15;;;20.20;86.60;;;;;;5092315;28;20091;-80
2022/06/22 04:35:43;;;;;;;5.13;0.80;;;20.00;87.70;;;;;;5092550;28;20069;-81
2022/06/22 04:38:26;;;;;;;0.80;0.50;;;20.00;85.60;;;;;;5090840;28;20032;-78
2022/06/22 04:41:12;;;;;;;0.63;0.40;;;19.90;87.50;;;;;;5090901;28;20349;-80
2022/06/22 04:43:39;;;;;;;0.50;0.50;;;20.10;89.90;;;;;;5091907;28;20039;-79
2022/06/22 04:46:10;;;;;;;1.25;0.73;;;20.20;87.60;;;;;;5090537;28;20078;-80
2022/06/22 04:48:40;;;;;;;0.85;0.60;;;20.30;89.20;;;;;;5090369;28;20072;-80
2022/06/22 04:51:11;;;;;;;1.55;0.70;;;20.50;90.20;;;;;;5091832;28;20027;-79
2022/06/22 04:53:42;;;;;;;0.77;0.77;;;20.50;87.20;;;;;;5090598;28;20047;-80
2022/06/22 04:56:14;;;;;;;1.60;0.50;;;20.40;88.90;;;;;;5092071;28;20020;-80
2022/06/22 04:58:51;;;;;;;1.02;0.80;;;20.60;89.80;;;;;;5091816;28;20028;-79
2022/06/22 05:01:28;;;;;;;0.85;0.80;;;20.60;90.30;;;;;;5090660;28;20020;-80
2022/06/22 05:03:59;;;;;;;0.95;0.93;;;20.50;90.90;;;;;;5091826;28;20126;-86
2022/06/22 05:06:41;;;;;;;4.53;0.82;;;20.50;91.30;;;;;;5091764;28;20028;-80
2022/06/22 05:09:17;;;;;;;4.53;2.38;;;20.40;91.50;;;;;;5090454;28;20122;-80
2022/06/22 05:11:47;;;;;;;2.55;1.50;;;20.40;92.30;;;;;;5092670;28;20054;-79
2022/06/22 05:14:27;;;;;;;1.52;0.90;;;20.20;91.20;;;;;;5094253;28;20024;-80
2022/06/22 05:16:57;;;;;;;1.38;0.90;;;20.20;92.10;;;;;;5095477;28;20102;-80
2022/06/22 05:19:28;;;;;;;2.50;0.73;;;20.20;92.50;;;;;;5094142;28;20367;-79
2022/06/22 05:21:57;;;;;;;1.30;1.05;;;20.20;93.50;;;;;;5094004;28;20570;-80
2022/06/22 05:24:30;;;;;;;1.67;0.95;;;20.20;93.80;;;;;;5094042;28;20039;-79
2022/06/22 05:26:59;;;;;;;3.38;0.90;;;20.20;93.40;;;;;;5095129;28;20024;-79
2022/06/22 05:29:36;;;;;;;0.77;0.77;;;20.30;92.90;;;;;;5095118;28;20039;-79
2022/06/22 05:32:08;;;;;;;0.93;0.90;;;20.40;92.20;;;;;;5094879;28;20455;-80
2022/06/22 05:34:37;;;;;;;0.98;0.88;;;20.60;89.70;;;;;;5093570;28;20031;-77
2022/06/22 05:37:12;;;;;;;3.65;3.00;;;20.60;86.60;;;;;;5093539;28;20020;-76
2022/06/22 05:39:39;;;;;;;7.80;3.65;;;20.70;87.50;;;;;;5094671;28;20016;-76
2022/06/22 05:42:05;;;;;;;2.75;1.20;;;20.70;85.90;;;;;;5093459;28;20476;-76
2022/06/22 05:44:31;;;;;;;3.25;1.00;;;20.70;82.90;;;;;;5094902;28;20089;-76
2022/06/22 05:46:59;;;;;;;1.75;1.02;;;20.70;82.40;;;;;;5094804;28;20080;-76
2022/06/22 05:49:44;;;;;;;1.08;0.98;;;20.70;80.80;;;;;;5094039;28;20368;-76
2022/06/22 05:52:12;;;;;;;3.80;2.60;;;20.80;81.00;;;;;;5092929;28;20459;-77
2022/06/22 05:54:46;;;;;;;2.80;1.30;;;20.70;80.50;;;;;;5093154;28;20375;-77
2022/06/22 05:57:27;;;;;;;2.42;0.85;;;20.80;81.90;;;;;;5094305;28;20352;-77
2022/06/22 06:00:00;;;;;;;1.63;1.45;;;20.80;81.00;;;;;;5093872;28;20032;-76
2022/06/22 06:02:51;;;;;;;1.13;0.93;;;20.80;80.80;;;;;;5093680;28;20887;-76
2022/06/22 06:05:35;;;;;;;2.83;1.50;;;20.70;82.10;;;;;;5094275;28;20036;-77
2022/06/22 06:08:07;;;;;;;2.83;1.52;;;20.70;85.10;;;;;;5094113;28;20375;-77
2022/06/22 06:10:37;;;;;;;1.92;1.33;;;20.80;86.70;;;;;;5092456;28;20501;-77
2022/06/22 06:13:28;;;;;;;1.70;1.30;;;20.80;87.30;;;;;;5094021;28;20032;-78
2022/06/22 06:15:59;;;;;;;1.10;1.10;;;20.70;86.90;;;;;;5093953;28;20081;-77
2022/06/22 06:18:31;;;;;;;1.05;0.70;;;20.60;86.70;;;;;;5093768;28;20490;-75
2022/06/22 06:21:21;;;;;;;1.00;0.85;;;20.70;86.30;;;;;;5093825;28;20111;-75
2022/06/22 06:24:01;;;;;;;2.22;1.73;;;20.70;86.80;;;;;;5093194;28;20046;-75
2022/06/22 06:29:48;;;;;;;0.73;0.73;;;20.60;88.20;;;;;;5093751;28;20077;-75
2022/06/22 06:32:32;;;;;;;7.78;0.90;;;20.50;88.40;;;;;;5093954;28;20031;-76
2022/06/22 06:35:30;;;;;;;1.05;0.60;;;20.40;88.80;;;;;;5092543;28;20048;-74
2022/06/22 06:37:56;;;;;;;1.60;1.00;;;20.40;87.10;;;;;;5091224;28;20039;-75
2022/06/22 06:40:43;;;;;;;3.70;0.70;;;20.50;87.70;;;;;;5093461;28;20016;-74
2022/06/22 06:43:09;;;;;;;0.68;0.60;;;20.90;86.80;;;;;;5093526;28;20023;-76
2022/06/22 06:45:35;;;;;;;0.95;0.50;;;21.20;85.40;;;;;;5093453;28;20081;-75
2022/06/22 06:48:05;;;;;;;1.50;0.70;;;21.30;85.50;;;;;;5093220;28;20035;-75
2022/06/22 06:50:38;;;;;;;1.02;1.00;;;21.30;87.50;;;;;;5091732;28;20540;-74
2022/06/22 06:53:25;;;;;;;0.65;0.65;;;21.30;87.10;;;;;;5093189;28;20058;-75
2022/06/22 06:56:16;;;;;;;1.23;0.77;;;21.40;87.10;;;;;;5092019;28;20093;-76
2022/06/22 06:58:50;;;;;;;2.55;0.85;;;21.60;87.10;;;;;;5091937;28;20340;-75
2022/06/22 07:01:26;;;;;;;1.57;0.83;;;21.50;86.80;;;;;;5093485;28;20036;-75
2022/06/22 07:03:53;;;;;;;;;;;21.70;86.60;;;;;;5093523;28;20086;-77
2022/06/22 07:06:19;;;;;;;4.43;0.88;;;21.80;84.40;;;;;;5093585;28;19956;-76
2022/06/22 07:09:14;;;;;;;2.05;0.77;;;22.00;81.70;;;;;;5093164;28;20066;-76
2022/06/22 07:11:48;;;;;;;1.00;1.00;;;22.10;81.00;;;;;;5063709;28;20036;-78
2022/06/22 07:14:46;;;;;;;3.10;0.80;;;22.30;81.60;;;;;;5092133;28;20360;-77
2022/06/22 07:17:15;;;;;;;1.52;1.00;;;22.60;80.70;;;;;;5048405;28;20272;-75
2022/06/22 07:19:46;;;;;;;1.52;0.93;;;22.70;79.10;;;;;;5092815;28;20032;-75
2022/06/22 07:22:31;;;;;;;3.85;1.00;;;22.90;78.00;;;;;;5093000;28;20391;-75
2022/06/22 07:25:33;;;;;;;1.42;0.90;;;23.10;78.90;;;;;;5092468;28;20061;-75
2022/06/22 07:28:10;;;;;;;1.10;0.98;;;23.20;78.50;;;;;;5019649;28;20084;-75
2022/06/22 07:31:00;;;;;;;1.08;1.05;;;23.30;76.70;;;;;;5092624;28;20463;-75
2022/06/22 07:33:40;;;;;;;1.40;1.00;;;23.50;78.50;;;;;;5092430;28;20477;-75
2022/06/22 07:36:19;;;;;;;7.13;1.98;;;23.70;77.20;;;;;;5092130;28;20485;-75
2022/06/22 07:38:58;;;;;;;3.47;1.48;;;23.60;78.40;;;;;;5092275;28;20063;-75
2022/06/22 07:41:26;;;;;;;2.35;1.10;;;23.50;78.30;;;;;;5092256;28;20020;-75
2022/06/22 07:44:14;;;;;;;1.50;0.70;;;23.50;77.80;;;;;;5092202;28;20032;-74
2022/06/22 07:46:49;;;;;;;4.05;0.98;;;23.50;78.90;;;;;;5092534;28;20490;-75
2022/06/22 07:49:34;;;;;;;1.20;1.10;;;23.60;80.30;;;;;;5092105;28;20020;-75
2022/06/22 07:52:03;;;;;;;0.77;0.77;;;23.90;80.20;;;;;;5091167;28;20028;-75
2022/06/22 07:55:15;;;;;;;6.72;1.08;;;24.10;78.20;;;;;;5091945;28;20058;-76
2022/06/22 07:57:53;;;;;;;1.20;0.82;;;24.40;77.30;;;;;;5091467;28;20038;-77
2022/06/22 08:00:22;;;;;;;0.80;0.80;;;24.50;74.90;;;;;;5092655;28;20020;-79
2022/06/22 08:03:12;;;;;;;1.10;1.00;;;24.60;77.40;;;;;;5092818;28;20028;-77
2022/06/22 08:05:42;;;;;;;1.20;1.02;;;24.60;75.80;;;;;;5092440;28;20036;-77
2022/06/22 08:08:16;;;;;;;1.05;0.68;;;24.60;74.60;;;;;;5092629;28;20017;-76
2022/06/22 08:11:18;;;;;;;2.13;1.13;;;24.50;77.60;;;;;;5091113;28;20038;-75
2022/06/22 08:13:51;;;;;;;0.88;0.88;;;24.40;76.70;;;;;;5092451;28;20035;-77
2022/06/22 08:16:40;;;;;;;1.55;1.30;;;24.50;76.50;;;;;;5091242;28;20032;-75
2022/06/22 08:19:06;;;;;;;3.40;1.00;;;24.50;75.50;;;;;;5092406;28;20515;-75
2022/06/22 08:21:36;;;;;;;0.93;0.90;;;24.60;76.80;;;;;;5091041;28;20032;-75
2022/06/22 08:24:03;;;;;;;1.13;1.10;;;24.80;77.40;;;;;;5090990;28;20127;-76
2022/06/22 08:26:31;;;;;;;2.05;1.17;;;25.00;75.20;;;;;;5092388;28;20550;-77
2022/06/22 08:28:59;;;;;;;1.27;1.17;;;25.30;76.20;;;;;;5092159;28;20028;-76
2022/06/22 08:31:30;;;;;;;4.72;0.98;;;25.50;75.00;;;;;;5092081;28;20347;-75
2022/06/22 08:33:59;;;;;;;1.55;1.08;;;25.60;74.20;;;;;;5091886;28;20020;-75
2022/06/22 08:36:25;;;;;;;1.60;0.85;;;25.50;73.50;;;;;;5092018;28;20031;-75
2022/06/22 08:39:10;;;;;;;2.45;1.10;;;25.50;73.00;;;;;;5091808;28;20043;-75
2022/06/22 08:41:46;;;;;;;1.10;1.00;;;25.40;72.60;;;;;;5090677;28;20032;-75
2022/06/22 08:44:17;;;;;;;0.90;0.90;;;25.40;74.80;;;;;;5091708;28;20035;-76
2022/06/22 08:47:28;;;;;;;2.30;0.90;;;25.70;73.70;;;;;;5094007;28;20027;-78
2022/06/22 08:50:12;;;;;;;1.63;1.20;;;26.00;74.30;;;;;;5090923;28;20036;-75
2022/06/22 08:52:53;;;;;;;1.75;0.95;;;26.20;72.30;;;;;;5094033;28;20112;-75
2022/06/22 08:55:23;;;;;;;0.93;0.93;;;26.30;73.00;;;;;;5095184;28;20066;-75
2022/06/22 08:57:58;;;;;;;2.00;1.02;;;26.30;71.10;;;;;;5093323;28;20061;-76
2022/06/22 09:00:23;;;;;;;1.83;0.98;;;26.30;69.10;;;;;;5097882;28;20056;-77
2022/06/22 09:03:07;;;;;;;1.25;1.13;;;26.20;68.90;;;;;;5096281;28;20051;-78
2022/06/22 09:06:03;;;;;;;1.80;1.02;;;26.30;67.30;;;;;;5097816;28;20036;-77
2022/06/22 09:08:43;;;;;;;;;;;26.60;93.90;;;;;;5095608;28;20018;-76
2022/06/22 09:11:40;;;;;;;2.35;0.80;;;26.50;93.50;;;;;;5093202;28;19904;-75
2022/06/22 09:14:25;;;;;;;0.95;0.68;;;26.40;92.70;;;;;;5095056;28;20024;-75
2022/06/22 09:16:59;;;;;;;2.00;1.20;;;26.20;82.80;;;;;;5093592;28;20506;-75
2022/06/22 09:20:06;;;;;;;0.98;0.95;;;26.20;83.90;;;;;;5094909;28;20035;-74
2022/06/22 09:22:50;;;;;;;10.05;1.25;;;26.10;67.80;;;;;;5094874;28;20050;-75
2022/06/22 09:25:41;;;;;;;1.40;0.80;;;26.10;68.20;;;;;;5095088;28;20558;-75
2022/06/22 09:28:16;;;;;;;2.08;0.95;;;26.10;69.50;;;;;;5095044;28;20612;-75
2022/06/22 09:31:04;;;;;;;2.78;1.13;;;26.10;68.70;;;;;;5094936;28;20064;-76
2022/06/22 09:33:33;;;;;;;5.75;1.10;;;26.10;70.20;;;;;;5094817;28;20081;-75
2022/06/22 09:36:07;;;;;;;4.18;1.98;;;26.00;69.50;;;;;;5094622;28;20108;-75
2022/06/22 09:38:33;;;;;;;1.67;1.27;;;26.00;69.20;;;;;;5094525;28;20382;-75
2022/06/22 09:41:07;;;;;;;3.63;0.80;;;25.90;69.60;;;;;;5094557;28;20095;-75
2022/06/22 09:43:54;;;;;;;1.60;1.20;;;25.30;70.80;;;;;;5094604;28;20035;-75
2022/06/22 09:46:26;;;;;;;1.05;0.90;;;25.40;73.70;;;;;;5094600;28;20751;-75
2022/06/22 09:49:10;;;;;;;0.98;0.98;;;25.50;72.30;;;;;;5094515;28;20070;-75
2022/06/22 09:51:54;;;;;;;1.02;0.75;;;25.40;72.90;;;;;;5093211;28;20389;-80
2022/06/22 09:57:49;;;;;;;0.93;0.93;;;25.40;72.60;;;;;;5094008;28;20043;-75
2022/06/22 10:00:20;;;;;;;2.00;1.20;;;25.50;72.40;;;;;;5094036;28;20031;-74
2022/06/22 10:03:07;;;;;;;1.25;1.00;;;25.50;73.80;;;;;;5093793;28;20035;-75
2022/06/22 10:05:43;;;;;;;6.40;1.58;;;25.60;72.20;;;;;;5094297;28;20039;-75
2022/06/22 10:08:32;;;;;;;5.38;0.93;;;25.50;74.20;;;;;;5094235;28;20092;-75
2022/06/22 10:11:15;;;;;;;2.50;2.13;;;25.60;74.50;;;;;;5094292;28;20042;-75
2022/06/22 10:14:01;;;;;;;2.90;0.93;;;25.60;72.40;;;;;;5094419;28;20020;-75
2022/06/22 10:17:03;;;;;;;4.38;2.35;;;25.80;78.70;;;;;;5094224;28;20050;-76
2022/06/22 10:19:48;;;;;;;1.25;1.13;;;25.90;81.80;;;;;;5063530;28;20032;-77
2022/06/22 10:22:38;;;;;;;3.00;1.55;;;25.90;76.70;;;;;;5094242;28;20020;-77
2022/06/22 10:25:23;;;;;;;1.65;1.00;;;25.90;78.00;;;;;;5092674;28;20035;-77
2022/06/22 10:28:10;;;;;;;1.73;1.30;;;26.00;76.20;;;;;;5093834;28;20024;-79
2022/06/22 10:30:56;;;;;;;1.30;1.10;;;26.10;72.60;;;;;;5092806;28;20506;-77
2022/06/22 10:33:58;;;;;;;3.35;1.88;;;26.10;72.50;;;;;;5094438;28;20020;-77
2022/06/22 10:36:33;;;;;;;2.03;1.15;;;;;;;;;;5093404;28;20027;-76
2022/06/22 10:39:17;;;;;;;;;;;26.30;68.80;;;;;;5094154;28;20436;-77
2022/06/22 10:48:01;;;;;;;4.15;1.10;;;26.30;69.40;;;;;;5093340;28;20097;-76
2022/06/22 10:50:46;;;;;;;3.83;1.30;;;26.40;71.20;;;;;;5093261;28;20059;-76
2022/06/22 10:53:49;;;;;;;3.17;1.23;;;26.50;71.40;;;;;;5093503;28;20020;-75
2022/06/22 10:56:24;;;;;;;2.15;1.30;;;26.60;71.00;;;;;;5092761;28;20020;-79
2022/06/22 10:59:18;;;;;;;3.42;1.27;;;26.80;69.10;;;;;;5091521;28;20423;-80
2022/06/22 11:02:02;;;;;;;1.23;1.10;;;27.10;69.80;;;;;;5091491;28;20425;-80
2022/06/22 11:04:37;;;;;;;1.33;1.20;;;27.20;70.50;;;;;;5092690;28;20083;-78
2022/06/22 11:07:28;;;;;;;3.05;1.40;;;27.40;70.20;;;;;;5093041;28;20027;-79
2022/06/22 11:10:13;;;;;;;2.17;1.98;;;27.60;69.70;;;;;;5090807;28;20546;-78
2022/06/22 11:13:14;;;;;;;1.63;1.23;;;27.60;70.30;;;;;;5092937;28;20467;-78
2022/06/22 11:16:01;;;;;;;1.67;1.23;;;27.70;69.70;;;;;;5051404;28;20062;-78
2022/06/22 11:18:45;;;;;;;1.23;1.05;;;27.60;68.10;;;;;;5091234;28;20028;-79
2022/06/22 11:21:35;;;;;;;1.67;1.40;;;27.50;68.70;;;;;;5091431;28;20024;-78
2022/06/22 11:24:13;;;;;;;3.78;1.60;;;27.50;69.70;;;;;;5092731;28;20093;-79
2022/06/22 11:32:40;;;;;;;3.13;1.40;;;27.30;72.60;;;;;;5092954;28;20097;-78
2022/06/22 11:35:32;;;;;;;4.60;1.50;;;27.40;72.50;;;;;;5092915;28;20523;-82
2022/06/22 11:38:24;;;;;;;3.17;1.92;;;27.60;70.50;;;;;;5088347;28;20042;-79
2022/06/22 11:41:30;;;;;;;2.53;1.40;;;27.80;69.10;;;;;;5077218;28;20036;-79
2022/06/22 11:44:14;;;;;;;1.80;1.27;;;27.90;69.70;;;;;;5069041;28;20039;-78
2022/06/22 11:46:45;;;;;;;2.85;1.48;;;28.00;69.50;;;;;;5092548;28;20081;-78
2022/06/22 11:49:30;;;;;;;1.60;1.15;;;28.00;69.10;;;;;;5090999;28;20016;-80
2022/06/22 11:52:05;;;;;;;3.08;1.80;;;27.90;68.70;;;;;;5091844;28;20028;-78
2022/06/22 11:54:48;;;;;;;;;;;27.80;69.70;;;;;;5093166;28;20528;-81
2022/06/22 11:57:47;;;;;;;2.33;1.30;;;27.60;70.20;;;;;;5092118;28;20071;-81
2022/06/22 12:00:16;;;;;;;4.35;1.42;;;27.40;70.10;;;;;;5092347;28;20017;-80
2022/06/22 12:03:04;;;;;;;1.55;1.30;;;27.40;71.20;;;;;;5090637;28;20114;-79
2022/06/22 12:05:44;;;;;;;2.00;1.33;;;27.50;72.20;;;;;;5092243;28;20155;-79
2022/06/22 12:08:32;;;;;;;4.30;1.52;;;27.60;71.60;;;;;;5092167;28;20112;-80
2022/06/22 12:11:28;;;;;;;7.07;2.17;;;27.80;72.40;;;;;;5091244;28;20020;-80
2022/06/22 12:17:31;;;;;;;3.35;1.42;;;28.00;69.20;;;;;;5092291;28;20038;-78
2022/06/22 12:20:11;;;;;;;1.65;1.55;;;27.90;69.30;;;;;;5051915;28;20047;-78
2022/06/22 12:23:02;;;;;;;3.97;1.90;;;27.80;71.90;;;;;;5095249;28;20016;-78
2022/06/22 12:25:44;;;;;;;7.05;1.55;;;27.70;72.40;;;;;;5096302;28;20086;-78
2022/06/22 12:28:34;;;;;;;4.55;1.77;;;27.50;73.90;;;;;;5095908;28;20031;-89
2022/06/22 12:31:21;;;;;;;2.78;1.80;;;27.50;73.40;;;;;;5094747;28;20118;-78
2022/06/22 12:33:53;;;;;;;1.70;1.60;;;27.20;73.90;;;;;;5095842;28;20345;-78
2022/06/22 12:36:33;;;;;;;2.10;2.00;;;27.20;75.10;;;;;;5095780;28;20040;-77
2022/06/22 12:39:18;;;;;;;2.38;1.30;;;27.20;75.70;;;;;;5095453;28;20027;-79
2022/06/22 12:41:56;;;;;;;2.42;1.77;;;27.10;75.70;;;;;;5096083;28;20043;-78
2022/06/22 12:45:00;;;;;;;3.67;1.60;;;27.00;75.30;;;;;;5095731;28;20041;-79
2022/06/22 12:47:31;;;;;;;1.50;1.40;;;26.80;77.30;;;;;;5077726;28;20032;-78
2022/06/22 12:50:09;;;;;;;1.67;1.58;;;26.60;79.00;;;;;;5095772;28;20027;-78
2022/06/22 12:52:41;;;;;;;1.95;1.48;;;26.60;79.10;;;;;;5094449;28;20127;-78
2022/06/22 12:55:15;;;;;;;2.42;1.52;;;26.60;79.70;;;;;;5094220;28;20020;-79
2022/06/22 12:57:49;;;;;;;1.73;1.50;;;26.60;80.20;;;;;;5095678;28;20028;-79
2022/06/22 13:00:18;;;;;;;2.63;1.70;;;26.70;79.60;;;;;;5094900;28;20611;-79
2022/06/22 13:02:46;;;;;;;2.15;1.58;;;26.80;80.60;;;;;;5093935;28;20036;-79
2022/06/22 13:05:22;;;;;;;1.30;1.20;;;27.00;80.00;;;;;;5093950;28;20040;-79
2022/06/22 13:07:55;;;;;;;1.90;1.80;;;27.00;77.60;;;;;;5095451;28;20390;-80
2022/06/22 13:10:24;;;;;;;2.90;1.48;;;27.20;78.20;;;;;;5094100;28;20043;-80
2022/06/22 13:13:02;;;;;;;2.03;1.73;;;27.20;78.30;;;;;;5095355;28;20028;-79
2022/06/22 13:15:33;;;;;;;3.38;1.67;;;27.20;77.70;;;;;;5094043;28;20024;-79
2022/06/22 13:18:24;;;;;;;1.60;1.50;;;27.20;78.50;;;;;;5095082;28;20518;-79
2022/06/22 13:21:17;;;;;;;4.28;1.70;;;27.30;79.10;;;;;;5093916;28;20027;-80
2022/06/22 13:24:10;;;;;;;2.50;1.58;;;27.40;77.60;;;;;;5095079;28;20035;-79
2022/06/22 13:26:51;;;;;;;2.88;1.75;;;27.40;77.40;;;;;;5095029;28;20372;-79
2022/06/22 13:29:27;;;;;;;2.28;1.65;;;27.30;76.60;;;;;;5095053;28;20095;-79
2022/06/22 13:31:57;;;;;;;1.95;1.75;;;27.30;76.90;;;;;;5094385;28;20023;-80
2022/06/22 13:34:28;;;;;;;2.63;1.35;;;27.30;77.50;;;;;;5095153;28;20016;-79
2022/06/22 13:37:02;;;;;;;1.95;1.30;;;27.30;77.80;;;;;;5093894;28;20047;-79
2022/06/22 13:40:29;;;;;;;5.82;1.55;;;27.20;77.90;;;;;;5093602;28;20055;-80
2022/06/22 13:43:12;;;;;;;2.58;2.00;;;27.00;76.90;;;;;;4995972;28;20030;-81
2022/06/22 13:45:56;;;;;;;2.65;1.38;;;26.80;77.60;;;;;;5012560;28;20394;-80
2022/06/22 13:48:40;;;;;;;6.20;2.05;;;26.60;78.40;;;;;;5072248;28;20032;-80
2022/06/22 13:51:57;;;;;;;7.50;1.60;;;26.50;79.30;;;;;;5094779;28;20051;-79
2022/06/22 13:54:29;;;;;;;1.77;1.50;;;26.30;79.60;;;;;;5060638;28;20032;-81
2022/06/22 13:57:14;;;;;;;1.88;1.38;;;26.10;79.60;;;;;;5093831;28;20435;-80
2022/06/22 13:59:56;;;;;;;2.28;1.45;;;26.10;81.10;;;;;;5094393;28;20481;-77
2022/06/22 14:02:34;;;;;;;1.77;1.63;;;26.10;81.30;;;;;;5093277;28;20036;-79
2022/06/22 14:05:13;;;;;;;2.38;1.80;;;26.00;83.30;;;;;;5093785;28;20047;-79
2022/06/22 14:07:42;;;;;;;2.58;1.67;;;26.00;83.50;;;;;;5093633;28;20026;-84
2022/06/22 14:10:27;;;;;;;2.03;1.52;;;26.00;83.20;;;;;;5093461;28;20036;-80
2022/06/22 14:13:17;;;;;;;3.08;1.70;;;25.90;85.30;;;;;;5092082;28;20031;-81
2022/06/22 14:15:48;;;;;;;3.65;1.98;;;25.90;87.20;;;;;;5091911;28;20028;-77
2022/06/22 14:18:33;;;;;;;2.35;2.03;;;25.70;87.30;;;;;;5093982;28;20070;-77
2022/06/22 14:21:13;;;;;;;3.53;1.60;;;25.60;88.20;;;;;;5093932;28;20027;-79